sensor_id;sensor_type;location;lat;lon;timestamp;P1;durP1;ratioP1;P2;durP2;ratioP2
51686;SDS011;37774;52.192;4.584;2022-12-18T00:01:57;102.57;;;25.27;;
51686;SDS011;37774;52.192;4.584;2022-12-18T00:04:24;102.65;;;25.48;;
51686;SDS011;37774;52.192;4.584;2022-12-18T00:06:51;106.55;;;27.33;;
51686;SDS011;37774;52.192;4.584;2022-12-18T00:09:19;110.78;;;27.13;;
51686;SDS011;37774;52.192;4.584;2022-12-18T00:11:46;95.30;;;26.77;;
51686;SDS011;37774;52.192;4.584;2022-12-18T00:14:12;84.97;;;24.42;;
51686;SDS011;37774;52.192;4.584;2022-12-18T00:16:39;84.97;;;23.02;;
51686;SDS011;37774;52.192;4.584;2022-12-18T00:19:06;81.72;;;24.92;;
51686;SDS011;37774;52.192;4.584;2022-12-18T00:21:33;83.53;;;23.60;;
51686;SDS011;37774;52.192;4.584;2022-12-18T00:23:59;86.40;;;22.50;;
51686;SDS011;37774;52.192;4.584;2022-12-18T00:26:28;79.93;;;22.58;;
51686;SDS011;37774;52.192;4.584;2022-12-18T00:28:57;67.97;;;22.13;;
51686;SDS011;37774;52.192;4.584;2022-12-18T00:31:24;88.30;;;21.08;;
51686;SDS011;37774;52.192;4.584;2022-12-18T00:33:52;113.70;;;25.70;;
51686;SDS011;37774;52.192;4.584;2022-12-18T00:36:20;82.30;;;22.38;;
51686;SDS011;37774;52.192;4.584;2022-12-18T00:38:47;78.88;;;23.05;;
51686;SDS011;37774;52.192;4.584;2022-12-18T00:41:14;88.72;;;22.25;;
51686;SDS011;37774;52.192;4.584;2022-12-18T00:44:03;75.50;;;23.48;;
51686;SDS011;37774;52.192;4.584;2022-12-18T00:46:29;93.15;;;23.40;;
51686;SDS011;37774;52.192;4.584;2022-12-18T00:48:55;104.25;;;22.73;;
51686;SDS011;37774;52.192;4.584;2022-12-18T00:51:22;71.60;;;20.58;;
51686;SDS011;37774;52.192;4.584;2022-12-18T00:53:48;76.53;;;21.58;;
51686;SDS011;37774;52.192;4.584;2022-12-18T00:56:15;101.28;;;21.05;;
51686;SDS011;37774;52.192;4.584;2022-12-18T00:58:41;79.80;;;23.65;;
51686;SDS011;37774;52.192;4.584;2022-12-18T01:01:09;87.00;;;22.10;;
51686;SDS011;37774;52.192;4.584;2022-12-18T01:03:36;86.65;;;21.88;;
51686;SDS011;37774;52.192;4.584;2022-12-18T01:06:05;73.38;;;20.92;;
51686;SDS011;37774;52.192;4.584;2022-12-18T01:08:31;68.22;;;21.42;;
51686;SDS011;37774;52.192;4.584;2022-12-18T01:10:58;91.43;;;23.38;;
51686;SDS011;37774;52.192;4.584;2022-12-18T01:13:24;84.05;;;21.42;;
51686;SDS011;37774;52.192;4.584;2022-12-18T01:15:51;87.78;;;24.05;;
51686;SDS011;37774;52.192;4.584;2022-12-18T01:18:19;74.72;;;21.23;;
51686;SDS011;37774;52.192;4.584;2022-12-18T01:20:45;72.25;;;21.15;;
51686;SDS011;37774;52.192;4.584;2022-12-18T01:23:12;87.00;;;24.88;;
51686;SDS011;37774;52.192;4.584;2022-12-18T01:25:38;73.18;;;21.08;;
51686;SDS011;37774;52.192;4.584;2022-12-18T01:28:05;59.03;;;18.95;;
51686;SDS011;37774;52.192;4.584;2022-12-18T01:30:31;72.93;;;20.42;;
51686;SDS011;37774;52.192;4.584;2022-12-18T01:32:58;73.35;;;20.17;;
51686;SDS011;37774;52.192;4.584;2022-12-18T01:35:26;80.35;;;24.08;;
51686;SDS011;37774;52.192;4.584;2022-12-18T01:37:53;73.00;;;22.02;;
51686;SDS011;37774;52.192;4.584;2022-12-18T01:40:20;73.93;;;20.90;;
51686;SDS011;37774;52.192;4.584;2022-12-18T01:42:49;79.03;;;18.38;;
51686;SDS011;37774;52.192;4.584;2022-12-18T01:45:23;80.50;;;19.63;;
51686;SDS011;37774;52.192;4.584;2022-12-18T01:47:50;79.75;;;20.48;;
51686;SDS011;37774;52.192;4.584;2022-12-18T01:50:18;69.18;;;20.65;;
51686;SDS011;37774;52.192;4.584;2022-12-18T01:52:47;68.28;;;17.73;;
51686;SDS011;37774;52.192;4.584;2022-12-18T01:55:16;75.05;;;21.00;;
51686;SDS011;37774;52.192;4.584;2022-12-18T01:57:42;86.97;;;20.08;;
51686;SDS011;37774;52.192;4.584;2022-12-18T02:00:10;73.43;;;22.33;;
51686;SDS011;37774;52.192;4.584;2022-12-18T02:02:37;67.15;;;17.20;;
51686;SDS011;37774;52.192;4.584;2022-12-18T02:05:04;61.63;;;19.63;;
51686;SDS011;37774;52.192;4.584;2022-12-18T02:07:33;100.10;;;19.27;;
51686;SDS011;37774;52.192;4.584;2022-12-18T02:10:03;62.83;;;18.33;;
51686;SDS011;37774;52.192;4.584;2022-12-18T02:12:34;60.92;;;17.83;;
51686;SDS011;37774;52.192;4.584;2022-12-18T02:15:03;59.45;;;18.92;;
51686;SDS011;37774;52.192;4.584;2022-12-18T02:17:35;55.38;;;16.75;;
51686;SDS011;37774;52.192;4.584;2022-12-18T02:20:05;60.90;;;18.60;;
51686;SDS011;37774;52.192;4.584;2022-12-18T02:22:36;80.07;;;21.27;;
51686;SDS011;37774;52.192;4.584;2022-12-18T02:25:11;58.92;;;17.52;;
51686;SDS011;37774;52.192;4.584;2022-12-18T02:27:40;65.78;;;18.90;;
51686;SDS011;37774;52.192;4.584;2022-12-18T02:30:08;71.60;;;17.80;;
51686;SDS011;37774;52.192;4.584;2022-12-18T02:32:36;70.88;;;19.38;;
51686;SDS011;37774;52.192;4.584;2022-12-18T02:35:04;65.65;;;19.55;;
51686;SDS011;37774;52.192;4.584;2022-12-18T02:37:31;81.97;;;18.35;;
51686;SDS011;37774;52.192;4.584;2022-12-18T02:39:58;61.47;;;19.33;;
51686;SDS011;37774;52.192;4.584;2022-12-18T02:42:25;74.43;;;15.98;;
51686;SDS011;37774;52.192;4.584;2022-12-18T02:44:53;47.88;;;15.85;;
51686;SDS011;37774;52.192;4.584;2022-12-18T02:47:22;53.63;;;17.55;;
51686;SDS011;37774;52.192;4.584;2022-12-18T02:49:55;50.75;;;17.48;;
51686;SDS011;37774;52.192;4.584;2022-12-18T02:52:25;53.72;;;14.13;;
51686;SDS011;37774;52.192;4.584;2022-12-18T02:54:57;71.97;;;22.45;;
51686;SDS011;37774;52.192;4.584;2022-12-18T02:57:29;54.05;;;16.02;;
51686;SDS011;37774;52.192;4.584;2022-12-18T03:00:00;53.45;;;15.52;;
51686;SDS011;37774;52.192;4.584;2022-12-18T03:02:29;52.63;;;19.33;;
51686;SDS011;37774;52.192;4.584;2022-12-18T03:05:00;57.22;;;18.88;;
51686;SDS011;37774;52.192;4.584;2022-12-18T03:07:32;55.47;;;17.23;;
51686;SDS011;37774;52.192;4.584;2022-12-18T03:09:59;42.33;;;15.18;;
51686;SDS011;37774;52.192;4.584;2022-12-18T03:12:28;61.22;;;18.80;;
51686;SDS011;37774;52.192;4.584;2022-12-18T03:14:57;72.88;;;18.70;;
51686;SDS011;37774;52.192;4.584;2022-12-18T03:17:27;64.43;;;17.95;;
51686;SDS011;37774;52.192;4.584;2022-12-18T03:19:56;58.58;;;17.95;;
51686;SDS011;37774;52.192;4.584;2022-12-18T03:22:23;45.00;;;17.23;;
51686;SDS011;37774;52.192;4.584;2022-12-18T03:24:50;66.63;;;18.15;;
51686;SDS011;37774;52.192;4.584;2022-12-18T03:27:18;61.17;;;16.83;;
51686;SDS011;37774;52.192;4.584;2022-12-18T03:29:46;58.20;;;14.77;;
51686;SDS011;37774;52.192;4.584;2022-12-18T03:32:15;57.00;;;17.05;;
51686;SDS011;37774;52.192;4.584;2022-12-18T03:34:45;69.18;;;18.75;;
51686;SDS011;37774;52.192;4.584;2022-12-18T03:37:14;51.47;;;14.73;;
51686;SDS011;37774;52.192;4.584;2022-12-18T03:39:40;54.42;;;13.90;;
51686;SDS011;37774;52.192;4.584;2022-12-18T03:42:08;59.95;;;18.58;;
51686;SDS011;37774;52.192;4.584;2022-12-18T03:44:38;46.53;;;16.63;;
51686;SDS011;37774;52.192;4.584;2022-12-18T03:47:06;51.90;;;16.38;;
51686;SDS011;37774;52.192;4.584;2022-12-18T03:49:34;57.50;;;15.85;;
51686;SDS011;37774;52.192;4.584;2022-12-18T03:52:04;72.65;;;18.73;;
51686;SDS011;37774;52.192;4.584;2022-12-18T03:54:32;61.78;;;17.80;;
51686;SDS011;37774;52.192;4.584;2022-12-18T03:57:00;47.92;;;15.50;;
51686;SDS011;37774;52.192;4.584;2022-12-18T03:59:28;44.03;;;16.10;;
51686;SDS011;37774;52.192;4.584;2022-12-18T04:01:55;57.35;;;15.52;;
51686;SDS011;37774;52.192;4.584;2022-12-18T04:04:24;39.25;;;13.77;;
51686;SDS011;37774;52.192;4.584;2022-12-18T04:06:51;50.83;;;14.50;;
51686;SDS011;37774;52.192;4.584;2022-12-18T04:09:19;53.40;;;15.90;;
51686;SDS011;37774;52.192;4.584;2022-12-18T04:11:46;53.28;;;19.13;;
51686;SDS011;37774;52.192;4.584;2022-12-18T04:14:13;50.17;;;15.77;;
51686;SDS011;37774;52.192;4.584;2022-12-18T04:16:40;40.20;;;13.95;;
51686;SDS011;37774;52.192;4.584;2022-12-18T04:19:06;48.95;;;16.40;;
51686;SDS011;37774;52.192;4.584;2022-12-18T04:21:33;54.70;;;18.00;;
51686;SDS011;37774;52.192;4.584;2022-12-18T04:23:59;36.35;;;14.38;;
51686;SDS011;37774;52.192;4.584;2022-12-18T04:26:27;47.42;;;16.25;;
51686;SDS011;37774;52.192;4.584;2022-12-18T04:28:54;52.50;;;16.58;;
51686;SDS011;37774;52.192;4.584;2022-12-18T04:31:20;53.72;;;14.93;;
51686;SDS011;37774;52.192;4.584;2022-12-18T04:33:47;40.22;;;14.50;;
51686;SDS011;37774;52.192;4.584;2022-12-18T04:36:13;44.97;;;15.75;;
51686;SDS011;37774;52.192;4.584;2022-12-18T04:38:40;60.75;;;17.70;;
51686;SDS011;37774;52.192;4.584;2022-12-18T04:41:06;46.95;;;15.90;;
51686;SDS011;37774;52.192;4.584;2022-12-18T04:43:34;44.78;;;16.92;;
51686;SDS011;37774;52.192;4.584;2022-12-18T04:46:02;57.15;;;15.88;;
51686;SDS011;37774;52.192;4.584;2022-12-18T04:48:28;46.33;;;14.90;;
51686;SDS011;37774;52.192;4.584;2022-12-18T04:50:55;55.90;;;16.90;;
51686;SDS011;37774;52.192;4.584;2022-12-18T04:53:21;48.40;;;17.15;;
51686;SDS011;37774;52.192;4.584;2022-12-18T04:55:48;65.53;;;17.65;;
51686;SDS011;37774;52.192;4.584;2022-12-18T04:58:14;63.88;;;17.88;;
51686;SDS011;37774;52.192;4.584;2022-12-18T05:00:42;56.67;;;15.95;;
51686;SDS011;37774;52.192;4.584;2022-12-18T05:03:09;53.42;;;17.88;;
51686;SDS011;37774;52.192;4.584;2022-12-18T05:05:36;45.95;;;15.95;;
51686;SDS011;37774;52.192;4.584;2022-12-18T05:08:02;71.40;;;16.00;;
51686;SDS011;37774;52.192;4.584;2022-12-18T05:10:29;54.95;;;16.50;;
51686;SDS011;37774;52.192;4.584;2022-12-18T05:12:55;56.03;;;17.23;;
51686;SDS011;37774;52.192;4.584;2022-12-18T05:15:26;55.20;;;14.85;;
51686;SDS011;37774;52.192;4.584;2022-12-18T05:17:54;47.15;;;15.90;;
51686;SDS011;37774;52.192;4.584;2022-12-18T05:20:21;45.50;;;17.40;;
51686;SDS011;37774;52.192;4.584;2022-12-18T05:22:47;36.30;;;15.55;;
51686;SDS011;37774;52.192;4.584;2022-12-18T05:25:14;60.05;;;16.92;;
51686;SDS011;37774;52.192;4.584;2022-12-18T05:27:41;52.38;;;17.98;;
51686;SDS011;37774;52.192;4.584;2022-12-18T05:30:08;41.67;;;15.82;;
51686;SDS011;37774;52.192;4.584;2022-12-18T05:32:34;69.00;;;17.45;;
51686;SDS011;37774;52.192;4.584;2022-12-18T05:35:03;57.67;;;17.55;;
51686;SDS011;37774;52.192;4.584;2022-12-18T05:37:30;60.55;;;16.45;;
51686;SDS011;37774;52.192;4.584;2022-12-18T05:39:56;52.65;;;16.02;;
51686;SDS011;37774;52.192;4.584;2022-12-18T05:42:23;46.92;;;16.75;;
51686;SDS011;37774;52.192;4.584;2022-12-18T05:44:49;69.88;;;18.80;;
51686;SDS011;37774;52.192;4.584;2022-12-18T05:47:16;67.38;;;16.33;;
51686;SDS011;37774;52.192;4.584;2022-12-18T05:49:42;52.72;;;16.35;;
51686;SDS011;37774;52.192;4.584;2022-12-18T05:52:10;44.20;;;16.90;;
51686;SDS011;37774;52.192;4.584;2022-12-18T05:54:37;61.03;;;18.52;;
51686;SDS011;37774;52.192;4.584;2022-12-18T05:57:04;58.22;;;18.45;;
51686;SDS011;37774;52.192;4.584;2022-12-18T05:59:30;48.53;;;15.85;;
51686;SDS011;37774;52.192;4.584;2022-12-18T06:01:57;44.25;;;14.82;;
51686;SDS011;37774;52.192;4.584;2022-12-18T06:04:23;57.65;;;17.40;;
51686;SDS011;37774;52.192;4.584;2022-12-18T06:06:50;46.90;;;14.45;;
51686;SDS011;37774;52.192;4.584;2022-12-18T06:09:17;45.83;;;14.05;;
51686;SDS011;37774;52.192;4.584;2022-12-18T06:11:44;39.50;;;16.00;;
51686;SDS011;37774;52.192;4.584;2022-12-18T06:14:11;49.08;;;16.13;;
51686;SDS011;37774;52.192;4.584;2022-12-18T06:16:37;49.60;;;16.25;;
51686;SDS011;37774;52.192;4.584;2022-12-18T06:19:04;42.80;;;15.57;;
51686;SDS011;37774;52.192;4.584;2022-12-18T06:21:31;47.00;;;15.88;;
51686;SDS011;37774;52.192;4.584;2022-12-18T06:23:58;35.70;;;12.93;;
51686;SDS011;37774;52.192;4.584;2022-12-18T06:26:27;43.85;;;14.52;;
51686;SDS011;37774;52.192;4.584;2022-12-18T06:28:53;37.58;;;14.23;;
51686;SDS011;37774;52.192;4.584;2022-12-18T06:31:20;36.72;;;13.23;;
51686;SDS011;37774;52.192;4.584;2022-12-18T06:33:46;56.00;;;16.67;;
51686;SDS011;37774;52.192;4.584;2022-12-18T06:36:13;50.60;;;15.02;;
51686;SDS011;37774;52.192;4.584;2022-12-18T06:38:40;48.25;;;16.95;;
51686;SDS011;37774;52.192;4.584;2022-12-18T06:41:07;51.70;;;15.18;;
51686;SDS011;37774;52.192;4.584;2022-12-18T06:43:35;39.13;;;13.18;;
51686;SDS011;37774;52.192;4.584;2022-12-18T06:46:03;38.95;;;15.73;;
51686;SDS011;37774;52.192;4.584;2022-12-18T06:48:30;34.92;;;12.43;;
51686;SDS011;37774;52.192;4.584;2022-12-18T06:50:56;30.60;;;12.50;;
51686;SDS011;37774;52.192;4.584;2022-12-18T06:53:23;40.10;;;14.27;;
51686;SDS011;37774;52.192;4.584;2022-12-18T06:55:49;49.30;;;17.38;;
51686;SDS011;37774;52.192;4.584;2022-12-18T06:58:16;41.35;;;14.02;;
51686;SDS011;37774;52.192;4.584;2022-12-18T07:00:44;34.42;;;12.65;;
51686;SDS011;37774;52.192;4.584;2022-12-18T07:03:10;51.35;;;13.70;;
51686;SDS011;37774;52.192;4.584;2022-12-18T07:05:39;34.58;;;13.07;;
51686;SDS011;37774;52.192;4.584;2022-12-18T07:08:05;56.58;;;14.27;;
51686;SDS011;37774;52.192;4.584;2022-12-18T07:10:32;40.95;;;16.92;;
51686;SDS011;37774;52.192;4.584;2022-12-18T07:12:58;31.30;;;11.32;;
51686;SDS011;37774;52.192;4.584;2022-12-18T07:15:25;45.05;;;12.68;;
51686;SDS011;37774;52.192;4.584;2022-12-18T07:17:53;53.60;;;15.77;;
51686;SDS011;37774;52.192;4.584;2022-12-18T07:20:19;42.58;;;13.50;;
51686;SDS011;37774;52.192;4.584;2022-12-18T07:22:46;37.45;;;14.27;;
51686;SDS011;37774;52.192;4.584;2022-12-18T07:25:12;44.90;;;14.48;;
51686;SDS011;37774;52.192;4.584;2022-12-18T07:27:39;34.22;;;13.90;;
51686;SDS011;37774;52.192;4.584;2022-12-18T07:30:06;36.42;;;11.70;;
51686;SDS011;37774;52.192;4.584;2022-12-18T07:32:32;46.28;;;15.50;;
51686;SDS011;37774;52.192;4.584;2022-12-18T07:35:00;40.70;;;14.40;;
51686;SDS011;37774;52.192;4.584;2022-12-18T07:37:27;46.40;;;16.95;;
51686;SDS011;37774;52.192;4.584;2022-12-18T07:39:53;48.58;;;16.25;;
51686;SDS011;37774;52.192;4.584;2022-12-18T07:42:20;44.58;;;15.82;;
51686;SDS011;37774;52.192;4.584;2022-12-18T07:44:59;34.70;;;14.23;;
51686;SDS011;37774;52.192;4.584;2022-12-18T07:47:26;39.20;;;14.70;;
51686;SDS011;37774;52.192;4.584;2022-12-18T07:49:53;34.63;;;11.23;;
51686;SDS011;37774;52.192;4.584;2022-12-18T07:52:20;34.47;;;13.13;;
51686;SDS011;37774;52.192;4.584;2022-12-18T07:54:47;30.38;;;13.15;;
51686;SDS011;37774;52.192;4.584;2022-12-18T07:57:14;40.35;;;13.68;;
51686;SDS011;37774;52.192;4.584;2022-12-18T07:59:40;45.00;;;14.60;;
51686;SDS011;37774;52.192;4.584;2022-12-18T08:02:07;33.05;;;14.38;;
51686;SDS011;37774;52.192;4.584;2022-12-18T08:04:33;34.03;;;14.50;;
51686;SDS011;37774;52.192;4.584;2022-12-18T08:07:00;30.85;;;14.85;;
51686;SDS011;37774;52.192;4.584;2022-12-18T08:09:28;32.65;;;14.15;;
51686;SDS011;37774;52.192;4.584;2022-12-18T08:11:54;38.17;;;12.23;;
51686;SDS011;37774;52.192;4.584;2022-12-18T08:14:21;37.05;;;15.98;;
51686;SDS011;37774;52.192;4.584;2022-12-18T08:16:47;39.40;;;14.05;;
51686;SDS011;37774;52.192;4.584;2022-12-18T08:19:14;32.08;;;12.77;;
51686;SDS011;37774;52.192;4.584;2022-12-18T08:21:40;33.58;;;14.20;;
51686;SDS011;37774;52.192;4.584;2022-12-18T08:24:08;40.13;;;11.63;;
51686;SDS011;37774;52.192;4.584;2022-12-18T08:26:36;37.72;;;14.10;;
51686;SDS011;37774;52.192;4.584;2022-12-18T08:29:03;34.90;;;15.90;;
51686;SDS011;37774;52.192;4.584;2022-12-18T08:31:30;38.17;;;13.68;;
51686;SDS011;37774;52.192;4.584;2022-12-18T08:33:57;40.38;;;16.63;;
51686;SDS011;37774;52.192;4.584;2022-12-18T08:36:23;34.47;;;12.48;;
51686;SDS011;37774;52.192;4.584;2022-12-18T08:38:50;41.85;;;16.20;;
51686;SDS011;37774;52.192;4.584;2022-12-18T08:41:17;31.52;;;13.18;;
51686;SDS011;37774;52.192;4.584;2022-12-18T08:43:45;28.08;;;12.88;;
51686;SDS011;37774;52.192;4.584;2022-12-18T08:46:31;27.20;;;11.65;;
51686;SDS011;37774;52.192;4.584;2022-12-18T08:48:58;39.78;;;14.00;;
51686;SDS011;37774;52.192;4.584;2022-12-18T08:51:25;34.38;;;12.10;;
51686;SDS011;37774;52.192;4.584;2022-12-18T08:53:52;34.67;;;13.88;;
51686;SDS011;37774;52.192;4.584;2022-12-18T08:56:18;27.98;;;11.13;;
51686;SDS011;37774;52.192;4.584;2022-12-18T08:58:46;30.90;;;11.73;;
51686;SDS011;37774;52.192;4.584;2022-12-18T09:01:13;33.92;;;13.05;;
51686;SDS011;37774;52.192;4.584;2022-12-18T09:03:39;37.97;;;15.85;;
51686;SDS011;37774;52.192;4.584;2022-12-18T09:06:06;35.08;;;12.32;;
51686;SDS011;37774;52.192;4.584;2022-12-18T09:08:34;45.63;;;18.15;;
51686;SDS011;37774;52.192;4.584;2022-12-18T09:11:01;39.50;;;12.68;;
51686;SDS011;37774;52.192;4.584;2022-12-18T09:13:28;37.97;;;13.07;;
51686;SDS011;37774;52.192;4.584;2022-12-18T09:15:56;31.83;;;13.98;;
51686;SDS011;37774;52.192;4.584;2022-12-18T09:18:23;27.67;;;12.70;;
51686;SDS011;37774;52.192;4.584;2022-12-18T09:20:50;36.72;;;16.15;;
51686;SDS011;37774;52.192;4.584;2022-12-18T09:23:17;38.85;;;14.50;;
51686;SDS011;37774;52.192;4.584;2022-12-18T09:25:44;41.70;;;12.85;;
51686;SDS011;37774;52.192;4.584;2022-12-18T09:28:11;37.83;;;14.75;;
51686;SDS011;37774;52.192;4.584;2022-12-18T09:30:40;44.20;;;15.05;;
51686;SDS011;37774;52.192;4.584;2022-12-18T09:33:09;26.42;;;13.25;;
51686;SDS011;37774;52.192;4.584;2022-12-18T09:35:35;31.13;;;13.18;;
51686;SDS011;37774;52.192;4.584;2022-12-18T09:38:02;34.67;;;12.20;;
51686;SDS011;37774;52.192;4.584;2022-12-18T09:40:30;32.33;;;13.50;;
51686;SDS011;37774;52.192;4.584;2022-12-18T09:42:59;41.53;;;13.35;;
51686;SDS011;37774;52.192;4.584;2022-12-18T09:45:27;32.65;;;13.00;;
51686;SDS011;37774;52.192;4.584;2022-12-18T09:47:53;34.05;;;14.35;;
51686;SDS011;37774;52.192;4.584;2022-12-18T09:50:23;42.67;;;16.63;;
51686;SDS011;37774;52.192;4.584;2022-12-18T09:52:53;31.95;;;14.45;;
51686;SDS011;37774;52.192;4.584;2022-12-18T09:55:22;33.70;;;13.13;;
51686;SDS011;37774;52.192;4.584;2022-12-18T09:57:51;37.38;;;13.25;;
51686;SDS011;37774;52.192;4.584;2022-12-18T10:00:20;30.00;;;12.95;;
51686;SDS011;37774;52.192;4.584;2022-12-18T10:02:47;48.70;;;14.60;;
51686;SDS011;37774;52.192;4.584;2022-12-18T10:05:14;38.85;;;13.35;;
51686;SDS011;37774;52.192;4.584;2022-12-18T10:07:46;33.90;;;14.63;;
51686;SDS011;37774;52.192;4.584;2022-12-18T10:10:16;22.08;;;12.85;;
51686;SDS011;37774;52.192;4.584;2022-12-18T10:12:46;35.42;;;13.50;;
51686;SDS011;37774;52.192;4.584;2022-12-18T10:15:17;41.97;;;15.02;;
51686;SDS011;37774;52.192;4.584;2022-12-18T10:17:50;36.95;;;13.95;;
51686;SDS011;37774;52.192;4.584;2022-12-18T10:20:19;38.13;;;13.93;;
51686;SDS011;37774;52.192;4.584;2022-12-18T10:22:50;40.92;;;13.30;;
51686;SDS011;37774;52.192;4.584;2022-12-18T10:25:21;41.28;;;14.70;;
51686;SDS011;37774;52.192;4.584;2022-12-18T10:27:48;30.88;;;13.00;;
51686;SDS011;37774;52.192;4.584;2022-12-18T10:30:18;31.35;;;12.55;;
51686;SDS011;37774;52.192;4.584;2022-12-18T10:32:45;33.92;;;13.70;;
51686;SDS011;37774;52.192;4.584;2022-12-18T10:35:14;37.17;;;15.82;;
51686;SDS011;37774;52.192;4.584;2022-12-18T10:40:25;26.15;;;13.07;;
51686;SDS011;37774;52.192;4.584;2022-12-18T10:43:02;44.40;;;15.02;;
51686;SDS011;37774;52.192;4.584;2022-12-18T10:45:29;39.10;;;14.90;;
51686;SDS011;37774;52.192;4.584;2022-12-18T10:47:56;40.55;;;16.38;;
51686;SDS011;37774;52.192;4.584;2022-12-18T10:50:24;38.28;;;14.55;;
51686;SDS011;37774;52.192;4.584;2022-12-18T10:52:53;31.25;;;12.75;;
51686;SDS011;37774;52.192;4.584;2022-12-18T10:55:20;36.60;;;14.27;;
51686;SDS011;37774;52.192;4.584;2022-12-18T10:57:48;31.63;;;14.05;;
51686;SDS011;37774;52.192;4.584;2022-12-18T11:00:24;33.13;;;12.93;;
51686;SDS011;37774;52.192;4.584;2022-12-18T11:02:52;41.33;;;15.48;;
51686;SDS011;37774;52.192;4.584;2022-12-18T11:05:24;32.97;;;14.77;;
51686;SDS011;37774;52.192;4.584;2022-12-18T11:07:50;35.60;;;14.65;;
51686;SDS011;37774;52.192;4.584;2022-12-18T11:10:19;39.97;;;16.25;;
51686;SDS011;37774;52.192;4.584;2022-12-18T11:12:46;41.40;;;15.95;;
51686;SDS011;37774;52.192;4.584;2022-12-18T11:15:16;32.03;;;15.07;;
51686;SDS011;37774;52.192;4.584;2022-12-18T11:17:45;42.20;;;16.42;;
51686;SDS011;37774;52.192;4.584;2022-12-18T11:20:19;43.88;;;13.98;;
51686;SDS011;37774;52.192;4.584;2022-12-18T11:22:53;32.92;;;14.75;;
51686;SDS011;37774;52.192;4.584;2022-12-18T11:25:20;33.05;;;13.95;;
51686;SDS011;37774;52.192;4.584;2022-12-18T11:27:48;37.50;;;14.93;;
51686;SDS011;37774;52.192;4.584;2022-12-18T11:30:21;37.60;;;13.20;;
51686;SDS011;37774;52.192;4.584;2022-12-18T11:32:48;33.00;;;13.95;;
51686;SDS011;37774;52.192;4.584;2022-12-18T11:35:17;34.20;;;14.30;;
51686;SDS011;37774;52.192;4.584;2022-12-18T11:37:46;37.10;;;12.98;;
51686;SDS011;37774;52.192;4.584;2022-12-18T11:40:15;44.03;;;15.75;;
51686;SDS011;37774;52.192;4.584;2022-12-18T11:42:44;43.35;;;14.82;;
51686;SDS011;37774;52.192;4.584;2022-12-18T11:45:20;27.35;;;12.05;;
51686;SDS011;37774;52.192;4.584;2022-12-18T11:47:52;30.85;;;14.18;;
51686;SDS011;37774;52.192;4.584;2022-12-18T11:50:21;32.15;;;14.40;;
51686;SDS011;37774;52.192;4.584;2022-12-18T11:52:49;28.55;;;11.48;;
51686;SDS011;37774;52.192;4.584;2022-12-18T11:55:20;27.10;;;12.27;;
51686;SDS011;37774;52.192;4.584;2022-12-18T11:57:50;29.80;;;14.15;;
51686;SDS011;37774;52.192;4.584;2022-12-18T12:00:19;28.10;;;13.25;;
51686;SDS011;37774;52.192;4.584;2022-12-18T12:03:00;28.23;;;11.65;;
51686;SDS011;37774;52.192;4.584;2022-12-18T12:05:33;29.20;;;14.25;;
51686;SDS011;37774;52.192;4.584;2022-12-18T12:08:04;34.72;;;13.85;;
51686;SDS011;37774;52.192;4.584;2022-12-18T12:10:36;35.08;;;12.18;;
51686;SDS011;37774;52.192;4.584;2022-12-18T12:13:10;31.60;;;14.52;;
51686;SDS011;37774;52.192;4.584;2022-12-18T12:15:42;39.08;;;13.32;;
51686;SDS011;37774;52.192;4.584;2022-12-18T12:18:17;30.02;;;12.65;;
51686;SDS011;37774;52.192;4.584;2022-12-18T12:20:47;37.50;;;13.48;;
51686;SDS011;37774;52.192;4.584;2022-12-18T12:23:19;36.38;;;14.63;;
51686;SDS011;37774;52.192;4.584;2022-12-18T12:25:49;33.67;;;15.55;;
51686;SDS011;37774;52.192;4.584;2022-12-18T12:28:26;40.40;;;14.60;;
51686;SDS011;37774;52.192;4.584;2022-12-18T12:30:58;29.23;;;12.88;;
51686;SDS011;37774;52.192;4.584;2022-12-18T12:33:32;29.15;;;13.73;;
51686;SDS011;37774;52.192;4.584;2022-12-18T12:36:02;39.72;;;14.63;;
51686;SDS011;37774;52.192;4.584;2022-12-18T12:38:34;37.97;;;14.82;;
51686;SDS011;37774;52.192;4.584;2022-12-18T12:41:03;34.90;;;11.57;;
51686;SDS011;37774;52.192;4.584;2022-12-18T12:43:34;33.55;;;14.15;;
51686;SDS011;37774;52.192;4.584;2022-12-18T12:46:02;27.73;;;12.50;;
51686;SDS011;37774;52.192;4.584;2022-12-18T12:48:35;31.05;;;13.07;;
51686;SDS011;37774;52.192;4.584;2022-12-18T12:51:08;33.60;;;15.20;;
51686;SDS011;37774;52.192;4.584;2022-12-18T12:53:35;43.33;;;12.40;;
51686;SDS011;37774;52.192;4.584;2022-12-18T12:56:03;30.25;;;11.52;;
51686;SDS011;37774;52.192;4.584;2022-12-18T12:58:31;32.35;;;12.30;;
51686;SDS011;37774;52.192;4.584;2022-12-18T13:01:02;44.45;;;13.77;;
51686;SDS011;37774;52.192;4.584;2022-12-18T13:03:36;29.65;;;12.93;;
51686;SDS011;37774;52.192;4.584;2022-12-18T13:06:08;32.97;;;12.60;;
51686;SDS011;37774;52.192;4.584;2022-12-18T13:08:51;49.95;;;15.77;;
51686;SDS011;37774;52.192;4.584;2022-12-18T13:11:28;37.97;;;12.65;;
51686;SDS011;37774;52.192;4.584;2022-12-18T13:14:19;26.00;;;10.88;;
51686;SDS011;37774;52.192;4.584;2022-12-18T13:16:46;31.17;;;13.23;;
51686;SDS011;37774;52.192;4.584;2022-12-18T13:19:19;38.63;;;12.88;;
51686;SDS011;37774;52.192;4.584;2022-12-18T13:21:51;35.15;;;13.68;;
51686;SDS011;37774;52.192;4.584;2022-12-18T13:24:22;44.40;;;15.65;;
51686;SDS011;37774;52.192;4.584;2022-12-18T13:26:49;35.72;;;12.88;;
51686;SDS011;37774;52.192;4.584;2022-12-18T13:29:27;33.47;;;14.18;;
51686;SDS011;37774;52.192;4.584;2022-12-18T13:32:15;33.03;;;12.52;;
51686;SDS011;37774;52.192;4.584;2022-12-18T13:34:46;38.53;;;12.57;;
51686;SDS011;37774;52.192;4.584;2022-12-18T13:39:58;33.55;;;14.25;;
51686;SDS011;37774;52.192;4.584;2022-12-18T13:45:35;28.92;;;13.45;;
51686;SDS011;37774;52.192;4.584;2022-12-18T13:48:02;27.05;;;12.20;;
51686;SDS011;37774;52.192;4.584;2022-12-18T13:50:30;44.42;;;13.13;;
51686;SDS011;37774;52.192;4.584;2022-12-18T13:52:57;43.03;;;15.38;;
51686;SDS011;37774;52.192;4.584;2022-12-18T13:55:23;33.20;;;12.90;;
51686;SDS011;37774;52.192;4.584;2022-12-18T13:57:50;32.42;;;13.90;;
51686;SDS011;37774;52.192;4.584;2022-12-18T14:00:29;36.83;;;14.10;;
51686;SDS011;37774;52.192;4.584;2022-12-18T14:02:56;44.33;;;14.80;;
51686;SDS011;37774;52.192;4.584;2022-12-18T14:05:23;32.30;;;12.00;;
51686;SDS011;37774;52.192;4.584;2022-12-18T14:07:51;29.65;;;14.02;;
51686;SDS011;37774;52.192;4.584;2022-12-18T14:10:18;35.97;;;14.57;;
51686;SDS011;37774;52.192;4.584;2022-12-18T14:12:45;42.88;;;14.60;;
51686;SDS011;37774;52.192;4.584;2022-12-18T14:15:27;28.20;;;13.60;;
51686;SDS011;37774;52.192;4.584;2022-12-18T14:17:57;46.88;;;16.00;;
51686;SDS011;37774;52.192;4.584;2022-12-18T14:20:25;32.90;;;15.13;;
51686;SDS011;37774;52.192;4.584;2022-12-18T14:22:53;39.20;;;13.10;;
51686;SDS011;37774;52.192;4.584;2022-12-18T14:25:21;43.47;;;17.73;;
51686;SDS011;37774;52.192;4.584;2022-12-18T14:27:49;39.70;;;16.08;;
51686;SDS011;37774;52.192;4.584;2022-12-18T14:30:26;30.27;;;13.43;;
51686;SDS011;37774;52.192;4.584;2022-12-18T14:33:00;35.55;;;13.70;;
51686;SDS011;37774;52.192;4.584;2022-12-18T14:35:27;28.77;;;11.68;;
51686;SDS011;37774;52.192;4.584;2022-12-18T14:37:55;31.67;;;12.88;;